KCQF

H L Sonny Callahan Airport

Fairhope, Alabama, USA
METAR KCQF 151215Z AUTO 36004KT 10SM OVC016 01/00 A3024 RMK AO2
Observed Flight Rules
Nov-15 @ 12:15 UTC (29 minutes ago) Marginal Visual Flight Rules
Wind Visibility Clouds
360° at 4 knots 10 miles
  • Overcast at 1,600' AGL
Temperatures Readings
Current 1°C / 34°F
Dewpoint 0°C / 32°F
Humidity 93%
Altimeter 30.24" Hg
Pressure 1024 hPa
Elevation 28
METAR KCQF 151215Z AUTO 36004KT 10SM OVC016 01/00 A3024 RMK AO2
Observed Flight Rules
Nov-15 @ 12:15 UTC
(29 minutes ago)
MVFR
Wind Visibility
360° at 4 knots 10 miles
Clouds
  • Overcast at 1,600' AGL
Temperature Dewpoint
1°C / 34°F 0°C / 32°F
Humidity Altimeter Pressure
93% 30.24" Hg 1024 hPa